createdAt,value
2022-12-08T00:01:49.978Z,4.50
2022-12-08T00:04:25.953Z,4.20
2022-12-08T00:07:19.529Z,4.00
2022-12-08T00:09:55.415Z,4.30
2022-12-08T00:12:33.316Z,3.80
2022-12-08T00:15:14.977Z,3.50
2022-12-08T00:17:58.666Z,3.60
2022-12-08T00:20:39.723Z,3.60
2022-12-08T00:23:23.265Z,4.10
2022-12-08T00:26:09.952Z,3.40
2022-12-08T00:28:55.031Z,3.30
2022-12-08T00:31:40.997Z,3.40
2022-12-08T00:34:23.192Z,3.60
2022-12-08T00:37:02.155Z,3.50
2022-12-08T00:39:44.384Z,4.10
2022-12-08T00:42:23.270Z,4.10
2022-12-08T00:45:05.268Z,4.10
2022-12-08T00:47:44.462Z,3.90
2022-12-08T00:50:23.195Z,3.60
2022-12-08T00:53:04.539Z,3.90
2022-12-08T00:58:23.593Z,3.40
2022-12-08T01:01:04.036Z,3.60
2022-12-08T01:03:41.906Z,3.70
2022-12-08T01:06:21.744Z,3.60
2022-12-08T01:09:01.767Z,3.60
2022-12-08T01:11:45.972Z,3.80
2022-12-08T01:14:23.466Z,3.30
2022-12-08T01:17:04.432Z,3.40
2022-12-08T01:19:43.072Z,3.70
2022-12-08T01:22:22.644Z,3.20
2022-12-08T01:25:00.703Z,3.80
2022-12-08T01:27:38.998Z,3.60
2022-12-08T01:30:19.577Z,4.20
2022-12-08T01:32:59.361Z,4.30
2022-12-08T01:35:40.698Z,4.30
2022-12-08T01:38:19.614Z,3.90
2022-12-08T01:41:00.222Z,3.80
2022-12-08T01:44:04.488Z,4.20
2022-12-08T01:46:44.530Z,3.90
2022-12-08T01:49:30.398Z,4.20
2022-12-08T01:52:15.836Z,3.90
2022-12-08T01:55:01.346Z,3.80
2022-12-08T01:57:46.796Z,3.80
2022-12-08T02:00:26.459Z,4.40
2022-12-08T02:03:11.202Z,4.10
2022-12-08T02:05:53.581Z,3.80
2022-12-08T02:08:33.046Z,4.30
2022-12-08T02:11:15.373Z,4.00
2022-12-08T02:13:58.354Z,4.20
2022-12-08T02:16:50.802Z,4.00
2022-12-08T02:20:32.323Z,4.20
2022-12-08T02:23:23.859Z,3.90
2022-12-08T02:27:12.851Z,3.70
2022-12-08T02:30:28.250Z,3.70
2022-12-08T02:34:03.480Z,3.80
2022-12-08T02:37:00.245Z,3.30
2022-12-08T02:39:52.536Z,3.40
2022-12-08T02:42:40.369Z,3.50
2022-12-08T02:45:31.537Z,4.10
2022-12-08T02:48:10.600Z,3.80
2022-12-08T02:50:47.692Z,3.70
2022-12-08T02:53:24.000Z,3.70
2022-12-08T02:56:17.700Z,3.80
2022-12-08T02:59:17.021Z,3.70
2022-12-08T03:02:22.155Z,4.00
2022-12-08T03:05:14.749Z,3.50
2022-12-08T03:08:04.301Z,3.80
2022-12-08T03:10:48.255Z,3.90
2022-12-08T03:13:30.734Z,3.30
2022-12-08T03:16:10.667Z,3.60
2022-12-08T03:18:56.288Z,3.80
2022-12-08T03:21:35.907Z,3.50
2022-12-08T03:24:16.575Z,4.10
2022-12-08T03:27:01.178Z,3.80
2022-12-08T03:29:37.810Z,4.00
2022-12-08T03:32:24.940Z,3.60
2022-12-08T03:35:05.231Z,3.90
2022-12-08T03:37:43.915Z,4.20
2022-12-08T03:40:23.051Z,4.10
2022-12-08T03:42:58.949Z,4.10
2022-12-08T03:45:35.044Z,3.70
2022-12-08T03:48:12.027Z,3.90
2022-12-08T03:50:47.982Z,3.80
2022-12-08T03:53:24.354Z,4.30
2022-12-08T03:56:00.283Z,3.60
2022-12-08T03:58:37.681Z,4.00
2022-12-08T04:01:14.352Z,4.00
2022-12-08T04:03:51.237Z,4.20
2022-12-08T04:06:28.488Z,4.60
2022-12-08T04:09:05.308Z,4.30
2022-12-08T04:11:41.567Z,3.70
2022-12-08T04:14:17.725Z,4.30
2022-12-08T04:16:54.691Z,4.20
2022-12-08T04:19:32.311Z,4.10
2022-12-08T04:22:08.831Z,4.70
2022-12-08T04:24:46.152Z,4.90
2022-12-08T04:27:22.397Z,5.80
2022-12-08T04:29:59.439Z,5.10
2022-12-08T04:32:36.823Z,4.90
2022-12-08T04:35:15.157Z,4.90
2022-12-08T04:37:53.601Z,5.10
2022-12-08T04:40:31.817Z,4.50
2022-12-08T04:43:09.654Z,4.60
2022-12-08T04:45:49.019Z,6.60
2022-12-08T04:48:25.511Z,5.10
2022-12-08T04:51:01.300Z,4.40
2022-12-08T04:53:40.871Z,4.70
2022-12-08T04:56:21.801Z,4.70
2022-12-08T04:58:59.824Z,4.90
2022-12-08T05:01:39.490Z,4.10
2022-12-08T05:04:16.710Z,4.70
2022-12-08T05:06:55.677Z,4.60
2022-12-08T05:09:33.880Z,4.60
2022-12-08T05:12:13.503Z,4.10
2022-12-08T05:14:52.627Z,4.30
2022-12-08T05:17:32.010Z,5.20
2022-12-08T05:20:17.109Z,4.60
2022-12-08T05:22:55.953Z,4.80
2022-12-08T05:25:35.973Z,4.80
2022-12-08T05:28:40.301Z,4.90
2022-12-08T05:31:14.038Z,4.80
2022-12-08T05:33:53.202Z,4.80
2022-12-08T05:36:31.995Z,4.60
2022-12-08T05:39:13.456Z,4.80
2022-12-08T05:41:53.021Z,4.60
2022-12-08T05:44:33.337Z,5.10
2022-12-08T05:47:12.940Z,4.80
2022-12-08T05:49:55.116Z,4.70
2022-12-08T05:52:35.909Z,4.90
2022-12-08T05:55:13.575Z,4.80
2022-12-08T05:57:49.325Z,4.20
2022-12-08T06:00:26.970Z,5.10
2022-12-08T06:03:03.011Z,4.70
2022-12-08T06:05:41.136Z,4.40
2022-12-08T06:08:17.424Z,4.00
2022-12-08T06:10:53.608Z,4.10
2022-12-08T06:13:29.468Z,4.70
2022-12-08T06:16:11.205Z,4.50
2022-12-08T06:21:22.412Z,4.70
2022-12-08T06:24:00.134Z,4.20
2022-12-08T06:26:36.234Z,4.40
2022-12-08T06:29:12.132Z,4.20
2022-12-08T06:32:00.913Z,4.60
2022-12-08T06:34:59.148Z,4.50
2022-12-08T06:37:36.622Z,4.60
2022-12-08T06:40:15.809Z,4.40
2022-12-08T06:42:51.760Z,4.70
2022-12-08T06:45:27.581Z,5.20
2022-12-08T06:48:05.604Z,4.50
2022-12-08T06:50:41.341Z,4.90
2022-12-08T06:53:19.050Z,5.00
2022-12-08T06:55:59.619Z,4.90
2022-12-08T06:58:36.924Z,5.20
2022-12-08T07:01:17.358Z,4.70
2022-12-08T07:04:01.742Z,4.90
2022-12-08T07:06:38.453Z,4.90
2022-12-08T07:09:14.316Z,5.00
2022-12-08T07:11:50.124Z,4.80
2022-12-08T07:14:26.233Z,5.40
2022-12-08T07:17:06.430Z,5.20
2022-12-08T07:19:44.793Z,5.80
2022-12-08T07:22:20.839Z,5.50
2022-12-08T07:24:57.062Z,5.80
2022-12-08T07:27:33.077Z,5.70
2022-12-08T07:30:12.353Z,5.40
2022-12-08T07:32:48.166Z,4.90
2022-12-08T07:35:27.356Z,5.30
2022-12-08T07:38:04.203Z,5.50
2022-12-08T07:40:43.406Z,5.60
2022-12-08T07:43:20.442Z,5.60
2022-12-08T07:45:56.613Z,5.50
2022-12-08T07:48:33.808Z,5.60
2022-12-08T07:51:12.879Z,5.90
2022-12-08T07:53:54.649Z,6.90
2022-12-08T07:56:31.012Z,6.90
2022-12-08T07:59:06.956Z,6.50
2022-12-08T08:01:45.409Z,6.90
2022-12-08T08:04:21.788Z,7.30
2022-12-08T08:06:57.911Z,7.10
2022-12-08T08:09:33.875Z,8.10
2022-12-08T08:12:30.855Z,7.10
2022-12-08T08:15:10.257Z,6.40
2022-12-08T08:17:46.196Z,6.10
2022-12-08T08:20:24.022Z,6.30
2022-12-08T08:23:00.066Z,6.70
2022-12-08T08:25:35.884Z,6.50
2022-12-08T08:28:11.742Z,6.80
2022-12-08T08:30:48.661Z,5.90
2022-12-08T08:33:24.720Z,5.90
2022-12-08T08:36:00.658Z,5.60
2022-12-08T08:38:39.476Z,5.40
2022-12-08T08:41:15.973Z,5.50
2022-12-08T08:43:51.851Z,5.40
2022-12-08T08:46:28.130Z,5.50
2022-12-08T08:49:04.734Z,5.80
2022-12-08T08:51:43.980Z,6.30
2022-12-08T08:54:20.136Z,5.60
2022-12-08T08:56:56.291Z,6.00
2022-12-08T08:59:33.052Z,6.90
2022-12-08T09:02:11.415Z,5.70
2022-12-08T09:04:48.157Z,5.30
2022-12-08T09:07:24.516Z,5.20
2022-12-08T09:10:02.027Z,5.70
2022-12-08T09:12:38.476Z,5.10
2022-12-08T09:15:15.722Z,5.30
2022-12-08T09:17:51.619Z,5.10
2022-12-08T09:20:27.479Z,5.20
2022-12-08T09:23:03.358Z,4.90
2022-12-08T09:25:39.191Z,5.90
2022-12-08T09:28:15.897Z,6.40
2022-12-08T09:30:53.693Z,5.90
2022-12-08T09:33:29.715Z,5.90
2022-12-08T09:36:11.200Z,6.60
2022-12-08T09:38:47.972Z,7.90
2022-12-08T09:41:43.345Z,8.20
2022-12-08T09:44:57.465Z,7.80
2022-12-08T09:47:40.958Z,7.90
2022-12-08T09:50:34.688Z,7.00
2022-12-08T09:53:17.059Z,7.30
2022-12-08T09:56:00.127Z,7.40
2022-12-08T09:58:50.449Z,8.10
2022-12-08T10:01:32.062Z,7.70
2022-12-08T10:04:20.121Z,6.30
2022-12-08T10:07:11.218Z,6.40
2022-12-08T10:09:57.397Z,7.00
2022-12-08T10:12:44.371Z,7.50
2022-12-08T10:15:45.378Z,7.20
2022-12-08T10:18:29.176Z,6.90
2022-12-08T10:21:20.609Z,7.10
2022-12-08T10:24:04.817Z,7.10
2022-12-08T10:26:40.981Z,6.80
2022-12-08T10:29:19.020Z,7.10
2022-12-08T10:31:55.150Z,7.00
2022-12-08T10:34:32.137Z,6.30
2022-12-08T10:37:16.488Z,5.90
2022-12-08T10:40:03.002Z,6.00
2022-12-08T10:42:44.784Z,6.90
2022-12-08T10:45:38.950Z,7.60
2022-12-08T10:48:23.735Z,7.70
2022-12-08T10:51:05.302Z,7.20
2022-12-08T10:53:49.572Z,6.60
2022-12-08T10:56:30.649Z,6.00
2022-12-08T10:59:20.362Z,5.20
2022-12-08T11:01:58.322Z,6.50
2022-12-08T11:04:39.656Z,6.60
2022-12-08T11:07:23.976Z,6.20
2022-12-08T11:10:02.144Z,5.80
2022-12-08T11:12:38.396Z,5.60
2022-12-08T11:15:20.385Z,6.30
2022-12-08T11:18:12.062Z,5.60
2022-12-08T11:20:47.941Z,5.70
2022-12-08T11:23:30.843Z,6.90
2022-12-08T11:26:25.096Z,5.30
2022-12-08T11:29:01.400Z,4.80
2022-12-08T11:31:46.257Z,5.40
2022-12-08T11:34:36.407Z,5.30
2022-12-08T11:37:27.496Z,5.90
2022-12-08T11:40:17.616Z,7.30
2022-12-08T11:43:16.677Z,7.70
2022-12-08T11:45:58.810Z,7.60
2022-12-08T11:48:42.216Z,6.90
2022-12-08T11:51:25.145Z,6.80
2022-12-08T11:54:23.490Z,6.80
2022-12-08T11:57:03.387Z,6.20
2022-12-08T11:59:46.329Z,6.30
2022-12-08T12:02:27.507Z,7.10
2022-12-08T12:05:33.688Z,6.10
2022-12-08T12:08:45.062Z,5.90
2022-12-08T12:11:54.681Z,5.10
2022-12-08T12:15:03.316Z,5.60
2022-12-08T12:17:51.742Z,5.20
2022-12-08T12:20:36.019Z,5.80
2022-12-08T12:23:21.855Z,5.80
2022-12-08T12:26:04.448Z,5.40
2022-12-08T12:28:52.449Z,6.10
2022-12-08T12:31:33.016Z,5.40
2022-12-08T12:34:17.910Z,6.10
2022-12-08T12:36:59.277Z,5.60
2022-12-08T12:39:51.656Z,6.20
2022-12-08T12:42:46.221Z,5.80
2022-12-08T12:45:35.954Z,6.20
2022-12-08T12:48:28.469Z,4.90
2022-12-08T12:51:44.695Z,5.40
2022-12-08T12:54:31.084Z,4.70
2022-12-08T13:00:26.960Z,6.00
2022-12-08T13:03:03.659Z,5.50
2022-12-08T13:05:54.265Z,5.50
2022-12-08T13:08:31.974Z,5.70
2022-12-08T13:11:11.906Z,5.70
2022-12-08T13:14:01.413Z,5.70
2022-12-08T13:16:42.218Z,6.50
2022-12-08T13:19:22.495Z,6.50
2022-12-08T13:21:58.934Z,6.40
2022-12-08T13:24:38.433Z,6.40
2022-12-08T13:27:52.543Z,6.60
2022-12-08T13:30:52.519Z,6.30
2022-12-08T13:33:39.236Z,7.10
2022-12-08T13:36:27.306Z,6.60
2022-12-08T13:39:05.219Z,7.00
2022-12-08T13:41:50.642Z,7.20
2022-12-08T13:45:18.677Z,6.40
2022-12-08T13:48:20.549Z,6.80
2022-12-08T13:54:52.650Z,6.40
2022-12-08T13:57:10.671Z,6.30
2022-12-08T13:59:49.185Z,5.80
2022-12-08T14:02:39.702Z,6.10
2022-12-08T14:05:40.575Z,6.80
2022-12-08T14:11:38.724Z,6.20
2022-12-08T14:14:45.769Z,7.50
2022-12-08T14:17:20.997Z,7.40
2022-12-08T14:20:03.548Z,7.90
2022-12-08T14:22:42.022Z,8.60
2022-12-08T14:25:22.455Z,9.90
2022-12-08T14:28:05.787Z,8.90
2022-12-08T14:30:42.884Z,9.50
2022-12-08T14:33:20.818Z,8.90
2022-12-08T14:35:59.329Z,8.80
2022-12-08T14:38:35.347Z,8.30
2022-12-08T14:41:14.636Z,8.90
2022-12-08T14:44:04.023Z,8.40
2022-12-08T14:46:40.383Z,7.90
2022-12-08T14:49:39.202Z,7.80
2022-12-08T14:52:18.717Z,7.70
2022-12-08T14:54:56.506Z,8.10
2022-12-08T14:57:40.335Z,7.60
2022-12-08T15:00:27.421Z,7.20
2022-12-08T15:03:08.744Z,7.30
2022-12-08T15:05:45.269Z,7.70
2022-12-08T15:08:21.498Z,7.10
2022-12-08T15:11:35.902Z,7.80
2022-12-08T15:14:35.255Z,8.00
2022-12-08T15:17:45.199Z,7.80
2022-12-08T15:20:44.265Z,7.40
2022-12-08T15:23:32.635Z,7.90
2022-12-08T15:26:10.363Z,8.70
2022-12-08T15:28:46.356Z,9.40
2022-12-08T15:31:25.212Z,9.20
2022-12-08T15:34:01.820Z,8.90
2022-12-08T15:36:38.424Z,9.70
2022-12-08T15:39:33.556Z,9.30
2022-12-08T15:42:15.339Z,8.80
2022-12-08T15:44:51.164Z,9.30
2022-12-08T15:47:28.793Z,9.10
2022-12-08T15:50:06.038Z,9.70
2022-12-08T15:52:42.232Z,9.60
2022-12-08T15:55:22.954Z,10.30
2022-12-08T16:00:57.231Z,10.50
2022-12-08T16:04:14.280Z,10.50
2022-12-08T16:07:26.863Z,10.10
2022-12-08T16:09:34.539Z,10.40
2022-12-08T16:18:38.177Z,9.00
2022-12-08T16:21:41.775Z,9.40
2022-12-08T16:24:21.724Z,10.60
2022-12-08T16:30:08.965Z,9.20
2022-12-08T16:32:52.731Z,11.10
2022-12-08T16:35:52.302Z,10.80
2022-12-08T16:38:36.312Z,10.00
2022-12-08T16:41:34.906Z,10.40
2022-12-08T16:44:11.284Z,11.80
2022-12-08T16:46:47.153Z,11.80
2022-12-08T16:49:23.200Z,13.00
2022-12-08T16:51:59.456Z,12.90
2022-12-08T16:54:37.050Z,12.90
2022-12-08T16:57:13.317Z,12.40
2022-12-08T16:59:57.026Z,13.40
2022-12-08T17:02:33.284Z,12.80
2022-12-08T17:05:13.750Z,13.40
2022-12-08T17:07:55.188Z,14.10
2022-12-08T17:10:42.373Z,12.90
2022-12-08T17:13:21.253Z,13.50
2022-12-08T17:15:57.420Z,13.80
2022-12-08T17:18:34.097Z,15.10
2022-12-08T17:21:21.529Z,14.00
2022-12-08T17:23:57.482Z,13.80
2022-12-08T17:26:35.737Z,14.80
2022-12-08T17:29:13.623Z,14.50
2022-12-08T17:31:56.086Z,14.90
2022-12-08T17:34:39.892Z,15.70
2022-12-08T17:37:18.103Z,13.60
2022-12-08T17:40:00.684Z,14.30
2022-12-08T17:42:38.077Z,13.80
2022-12-08T17:45:17.706Z,14.00
2022-12-08T17:47:55.880Z,13.60
2022-12-08T17:50:32.156Z,13.10
2022-12-08T17:53:08.322Z,13.90
2022-12-08T17:56:04.982Z,14.20
2022-12-08T17:58:47.560Z,14.30
2022-12-08T18:01:34.485Z,13.90
2022-12-08T18:04:14.390Z,15.60
2022-12-08T18:07:04.016Z,15.50
2022-12-08T18:09:47.853Z,14.80
2022-12-08T18:12:25.745Z,14.90
2022-12-08T18:15:12.158Z,14.60
2022-12-08T18:17:55.415Z,15.40
2022-12-08T18:20:37.838Z,15.50
2022-12-08T18:23:19.590Z,15.30
2022-12-08T18:25:55.973Z,18.00
2022-12-08T18:28:32.036Z,18.00
2022-12-08T18:31:22.829Z,18.30
2022-12-08T18:34:01.241Z,17.70
2022-12-08T18:36:37.221Z,17.00
2022-12-08T18:39:26.459Z,16.70
2022-12-08T18:42:23.098Z,17.40
2022-12-08T18:45:04.217Z,16.30
2022-12-08T18:47:42.485Z,15.70
2022-12-08T18:50:19.647Z,17.40
2022-12-08T18:52:55.615Z,16.70
2022-12-08T18:55:31.717Z,17.70
2022-12-08T18:58:07.630Z,16.90
2022-12-08T19:00:43.689Z,15.70
2022-12-08T19:03:19.749Z,16.30
2022-12-08T19:06:08.282Z,16.50
2022-12-08T19:08:44.611Z,16.90
2022-12-08T19:11:29.130Z,18.00
2022-12-08T19:14:05.777Z,36.00
2022-12-08T19:16:41.739Z,18.00
2022-12-08T19:19:17.800Z,16.90
2022-12-08T19:21:53.624Z,18.20
2022-12-08T19:24:30.529Z,17.50
2022-12-08T19:27:06.871Z,17.90
2022-12-08T19:29:42.804Z,17.30
2022-12-08T19:32:19.009Z,17.70
2022-12-08T19:34:55.301Z,17.40
2022-12-08T19:37:31.505Z,18.20
2022-12-08T19:40:28.171Z,17.10
2022-12-08T19:43:24.191Z,17.50
2022-12-08T19:46:00.648Z,17.60
2022-12-08T19:48:36.805Z,19.00
2022-12-08T19:51:14.101Z,18.30
2022-12-08T19:53:51.498Z,17.30
2022-12-08T19:56:27.673Z,18.00
2022-12-08T19:59:03.916Z,17.40
2022-12-08T20:01:41.429Z,18.10
2022-12-08T20:04:19.537Z,17.70
2022-12-08T20:06:57.526Z,17.40
2022-12-08T20:09:33.437Z,17.70
2022-12-08T20:12:10.499Z,17.80
2022-12-08T20:14:46.520Z,18.20
2022-12-08T20:17:22.429Z,18.60
2022-12-08T20:20:02.596Z,16.90
2022-12-08T20:22:43.081Z,18.90
2022-12-08T20:25:19.661Z,18.50
2022-12-08T20:27:56.492Z,19.10
2022-12-08T20:30:32.592Z,16.50
2022-12-08T20:33:09.460Z,18.80
2022-12-08T20:35:49.000Z,17.00
2022-12-08T20:38:25.422Z,18.30
2022-12-08T20:41:02.963Z,18.60
2022-12-08T20:43:39.858Z,18.60
2022-12-08T20:46:19.470Z,18.20
2022-12-08T20:48:57.926Z,17.70
2022-12-08T20:51:35.209Z,18.10
2022-12-08T20:54:11.940Z,18.00
2022-12-08T20:56:48.686Z,17.50
2022-12-08T20:59:26.542Z,17.80
2022-12-08T21:02:04.411Z,18.10
2022-12-08T21:04:40.893Z,17.40
2022-12-08T21:07:17.006Z,18.80
2022-12-08T21:09:54.847Z,17.90
2022-12-08T21:12:30.928Z,18.00
2022-12-08T21:15:08.452Z,18.00
2022-12-08T21:17:44.568Z,16.20
2022-12-08T21:20:20.791Z,17.60
2022-12-08T21:22:56.977Z,17.90
2022-12-08T21:25:33.018Z,17.20
2022-12-08T21:28:09.325Z,16.80
2022-12-08T21:30:46.245Z,17.90
2022-12-08T21:33:22.358Z,17.70
2022-12-08T21:36:12.047Z,17.40
2022-12-08T21:38:49.728Z,17.50
2022-12-08T21:41:46.139Z,17.30
2022-12-08T21:44:23.781Z,17.70
2022-12-08T21:46:59.851Z,17.20
2022-12-08T21:49:36.573Z,17.10
2022-12-08T21:52:12.669Z,17.80
2022-12-08T21:54:48.846Z,17.80
2022-12-08T21:57:26.389Z,17.50
2022-12-08T22:00:02.609Z,19.60
2022-12-08T22:02:40.242Z,18.00
2022-12-08T22:05:17.149Z,18.10
2022-12-08T22:07:53.269Z,17.30
2022-12-08T22:10:29.330Z,17.70
2022-12-08T22:13:05.326Z,17.80
2022-12-08T22:15:41.330Z,17.40
2022-12-08T22:18:18.492Z,16.90
2022-12-08T22:20:54.989Z,17.00
2022-12-08T22:23:33.420Z,18.10
2022-12-08T22:26:11.018Z,18.60
2022-12-08T22:28:47.703Z,17.00
2022-12-08T22:31:24.932Z,17.50
2022-12-08T22:34:02.867Z,18.00
2022-12-08T22:36:38.767Z,18.90
2022-12-08T22:39:14.790Z,18.90
2022-12-08T22:41:50.975Z,18.60
2022-12-08T22:44:27.322Z,17.90
2022-12-08T22:47:03.446Z,17.80
2022-12-08T22:49:39.541Z,18.40
2022-12-08T22:52:15.586Z,18.00
2022-12-08T22:54:51.459Z,18.60
2022-12-08T22:57:27.451Z,18.30
2022-12-08T23:00:03.676Z,18.10
2022-12-08T23:02:41.257Z,18.10
2022-12-08T23:05:17.995Z,19.50
2022-12-08T23:07:54.972Z,19.60
2022-12-08T23:10:31.392Z,19.80
2022-12-08T23:13:07.356Z,19.80
2022-12-08T23:15:43.986Z,18.10
2022-12-08T23:19:24.857Z,19.80
2022-12-08T23:22:18.616Z,17.50
2022-12-08T23:25:14.378Z,19.00
2022-12-08T23:28:08.359Z,19.00
2022-12-08T23:30:46.887Z,18.90
2022-12-08T23:33:23.404Z,18.80
2022-12-08T23:36:03.360Z,18.60
2022-12-08T23:38:40.000Z,19.20
2022-12-08T23:41:19.019Z,18.30
2022-12-08T23:43:56.409Z,18.30
2022-12-08T23:46:32.727Z,20.70
2022-12-08T23:49:08.944Z,18.70
2022-12-08T23:51:45.310Z,19.20
2022-12-08T23:54:21.887Z,19.00
2022-12-08T23:56:57.905Z,17.90
2022-12-08T23:59:35.145Z,18.60
